createdAt,value
2018-09-30T00:00:01.523Z,999.77
2018-09-30T00:01:01.499Z,999.76
2018-09-30T00:02:01.473Z,999.75
2018-09-30T00:03:01.450Z,999.70
2018-09-30T00:04:01.427Z,999.73
2018-09-30T00:05:01.405Z,999.73
2018-09-30T00:06:01.382Z,999.74
2018-09-30T00:07:01.357Z,999.69
2018-09-30T00:08:01.332Z,999.71
2018-09-30T00:09:01.316Z,999.66
2018-09-30T00:10:01.288Z,999.69
2018-09-30T00:11:01.265Z,999.69
2018-09-30T00:12:01.241Z,999.68
2018-09-30T00:13:01.220Z,999.64
2018-09-30T00:14:01.194Z,999.63
2018-09-30T00:15:01.169Z,999.61
2018-09-30T00:16:01.143Z,999.56
2018-09-30T00:17:01.128Z,999.53
2018-09-30T00:18:01.096Z,999.52
2018-09-30T00:19:01.079Z,999.53
2018-09-30T00:20:01.051Z,999.56
2018-09-30T00:21:01.025Z,999.54
2018-09-30T00:22:01.009Z,999.50
2018-09-30T00:23:00.978Z,999.51
2018-09-30T00:24:00.955Z,999.43
2018-09-30T00:25:00.935Z,999.44
2018-09-30T00:26:00.910Z,999.47
2018-09-30T00:27:00.884Z,999.42
2018-09-30T00:28:00.868Z,999.41
2018-09-30T00:29:00.837Z,999.41
2018-09-30T00:30:00.814Z,999.41
2018-09-30T00:31:00.793Z,999.41
2018-09-30T00:32:00.772Z,999.36
2018-09-30T00:33:00.752Z,999.32
2018-09-30T00:34:00.719Z,999.33
2018-09-30T00:35:00.694Z,999.33
2018-09-30T00:36:00.672Z,999.30
2018-09-30T00:37:00.655Z,999.29
2018-09-30T00:38:00.626Z,999.32
2018-09-30T00:39:00.607Z,999.32
2018-09-30T00:40:00.584Z,999.31
2018-09-30T00:41:00.554Z,999.30
2018-09-30T00:42:00.531Z,999.27
2018-09-30T00:43:00.505Z,999.30
2018-09-30T00:44:00.482Z,999.28
2018-09-30T00:45:00.461Z,999.32
2018-09-30T00:46:00.435Z,999.29
2018-09-30T00:47:00.413Z,999.28
2018-09-30T00:48:00.393Z,999.26
2018-09-30T00:49:00.371Z,999.27
2018-09-30T00:50:00.341Z,999.28
2018-09-30T00:51:00.326Z,999.26
2018-09-30T00:52:00.303Z,999.27
2018-09-30T00:53:00.278Z,999.22
2018-09-30T00:54:00.252Z,999.23
2018-09-30T00:55:00.223Z,999.24
2018-09-30T00:56:00.203Z,999.20
2018-09-30T00:57:00.181Z,999.15
2018-09-30T00:58:00.156Z,999.17
2018-09-30T00:59:00.135Z,999.15
2018-09-30T01:00:00.106Z,999.12
2018-09-30T01:01:00.085Z,999.17
2018-09-30T01:02:00.066Z,999.12
2018-09-30T01:03:00.042Z,999.16
2018-09-30T01:04:00.013Z,999.14
2018-09-30T01:04:59.987Z,999.13
2018-09-30T01:05:59.964Z,999.10
2018-09-30T01:06:59.942Z,999.09
2018-09-30T01:07:59.922Z,999.07
2018-09-30T01:08:59.894Z,999.05
2018-09-30T01:09:59.883Z,999.07
2018-09-30T01:10:59.849Z,999.06
2018-09-30T01:11:59.829Z,999.07
2018-09-30T01:12:59.801Z,999.07
2018-09-30T01:13:59.781Z,999.03
2018-09-30T01:14:59.752Z,999.02
2018-09-30T01:15:59.727Z,999.00
2018-09-30T01:16:59.715Z,998.97
2018-09-30T01:17:59.684Z,998.93
2018-09-30T01:18:59.656Z,998.91
2018-09-30T01:19:59.633Z,998.94
2018-09-30T01:20:59.611Z,998.94
2018-09-30T01:21:59.592Z,998.91
2018-09-30T01:22:59.563Z,998.87
2018-09-30T01:23:59.551Z,998.89
2018-09-30T01:24:59.515Z,998.84
2018-09-30T01:25:59.499Z,998.87
2018-09-30T01:26:59.477Z,998.86
2018-09-30T01:27:59.447Z,998.93
2018-09-30T01:29:00.074Z,998.84
2018-09-30T01:29:59.400Z,998.81
2018-09-30T01:30:59.381Z,998.79
2018-09-30T01:31:59.358Z,998.84
2018-09-30T01:32:59.333Z,998.83
2018-09-30T01:33:59.304Z,998.86
2018-09-30T01:34:59.287Z,998.87
2018-09-30T01:35:59.259Z,998.93
2018-09-30T01:36:59.243Z,998.86
2018-09-30T01:37:59.211Z,998.88
2018-09-30T01:38:59.193Z,998.87
2018-09-30T01:39:59.164Z,998.87
2018-09-30T01:40:59.139Z,998.87
2018-09-30T01:41:59.122Z,998.87
2018-09-30T01:42:59.094Z,998.87
2018-09-30T01:43:59.075Z,998.84
2018-09-30T01:44:59.043Z,998.85
2018-09-30T01:45:59.023Z,998.88
2018-09-30T01:46:59.005Z,998.91
2018-09-30T01:47:58.976Z,998.91
2018-09-30T01:48:58.954Z,998.89
2018-09-30T01:49:58.933Z,998.87
2018-09-30T01:50:58.910Z,998.92
2018-09-30T01:51:58.881Z,998.89
2018-09-30T01:52:58.857Z,998.89
2018-09-30T01:53:58.834Z,998.90
2018-09-30T01:54:58.807Z,998.91
2018-09-30T01:55:58.787Z,998.88
2018-09-30T01:56:58.763Z,998.87
2018-09-30T01:57:58.737Z,998.86
2018-09-30T01:58:58.714Z,998.89
2018-09-30T01:59:58.689Z,998.90
2018-09-30T02:00:58.666Z,998.88
2018-09-30T02:01:58.641Z,998.86
2018-09-30T02:02:58.619Z,998.86
2018-09-30T02:03:58.596Z,998.88
2018-09-30T02:04:58.571Z,998.84
2018-09-30T02:05:58.548Z,998.83
2018-09-30T02:06:58.523Z,998.83
2018-09-30T02:07:58.507Z,998.82
2018-09-30T02:08:58.485Z,998.84
2018-09-30T02:09:58.453Z,998.82
2018-09-30T02:10:58.434Z,998.76
2018-09-30T02:11:58.411Z,998.77
2018-09-30T02:12:58.386Z,998.75
2018-09-30T02:13:58.358Z,998.74
2018-09-30T02:14:58.343Z,998.74
2018-09-30T02:15:58.313Z,998.75
2018-09-30T02:16:58.295Z,998.77
2018-09-30T02:17:58.265Z,998.75
2018-09-30T02:18:58.240Z,998.78
2018-09-30T02:19:58.218Z,998.74
2018-09-30T02:20:58.201Z,998.73
2018-09-30T02:21:58.169Z,998.66
2018-09-30T02:22:58.148Z,998.69
2018-09-30T02:23:58.129Z,998.72
2018-09-30T02:24:58.109Z,998.74
2018-09-30T02:25:58.077Z,998.73
2018-09-30T02:26:58.059Z,998.67
2018-09-30T02:27:58.027Z,998.70
2018-09-30T02:28:58.007Z,998.65
2018-09-30T02:29:57.984Z,998.63
2018-09-30T02:30:57.957Z,998.62
2018-09-30T02:31:57.939Z,998.60
2018-09-30T02:32:57.910Z,998.56
2018-09-30T02:33:57.885Z,998.55
2018-09-30T02:34:57.862Z,998.55
2018-09-30T02:35:57.843Z,998.55
2018-09-30T02:36:57.821Z,998.57
2018-09-30T02:37:57.788Z,998.57
2018-09-30T02:38:57.768Z,998.54
2018-09-30T02:39:57.745Z,998.51
2018-09-30T02:40:57.719Z,998.53
2018-09-30T02:41:57.697Z,998.50
2018-09-30T02:42:57.671Z,998.50
2018-09-30T02:43:57.649Z,998.48
2018-09-30T02:44:57.627Z,998.43
2018-09-30T02:45:57.601Z,998.43
2018-09-30T02:46:57.579Z,998.43
2018-09-30T02:47:57.558Z,998.47
2018-09-30T02:48:57.537Z,998.44
2018-09-30T02:49:57.511Z,998.46
2018-09-30T02:50:57.485Z,998.48
2018-09-30T02:51:57.459Z,998.42
2018-09-30T02:52:57.441Z,998.44
2018-09-30T02:53:57.412Z,998.48
2018-09-30T02:54:57.392Z,998.44
2018-09-30T02:55:57.366Z,998.44
2018-09-30T02:56:57.347Z,998.43
2018-09-30T02:57:57.315Z,998.35
2018-09-30T02:58:57.293Z,998.32
2018-09-30T02:59:57.277Z,998.28
2018-09-30T03:00:57.251Z,998.28
2018-09-30T03:01:57.229Z,998.22
2018-09-30T03:02:57.197Z,998.27
2018-09-30T03:03:57.174Z,998.21
2018-09-30T03:04:57.152Z,998.20
2018-09-30T03:05:57.132Z,998.20
2018-09-30T03:06:57.106Z,998.20
2018-09-30T03:07:57.077Z,998.17
2018-09-30T03:08:57.055Z,998.17
2018-09-30T03:09:57.029Z,998.17
2018-09-30T03:10:57.007Z,998.17
2018-09-30T03:11:56.981Z,998.17
2018-09-30T03:12:56.965Z,998.15
2018-09-30T03:13:56.938Z,998.12
2018-09-30T03:14:56.914Z,998.12
2018-09-30T03:15:56.891Z,998.11
2018-09-30T03:16:56.872Z,998.10
2018-09-30T03:17:56.841Z,998.09
2018-09-30T03:18:56.821Z,998.09
2018-09-30T03:19:56.793Z,998.10
2018-09-30T03:20:56.772Z,998.04
2018-09-30T03:21:56.742Z,997.99
2018-09-30T03:22:56.723Z,997.98
2018-09-30T03:23:56.704Z,997.96
2018-09-30T03:24:56.672Z,997.93
2018-09-30T03:25:56.663Z,997.91
2018-09-30T03:26:56.624Z,997.91
2018-09-30T03:27:56.609Z,997.88
2018-09-30T03:28:56.576Z,997.90
2018-09-30T03:29:56.562Z,997.90
2018-09-30T03:30:56.536Z,997.87
2018-09-30T03:31:56.506Z,997.87
2018-09-30T03:32:56.490Z,997.88
2018-09-30T03:33:56.465Z,997.89
2018-09-30T03:34:56.443Z,997.83
2018-09-30T03:35:56.411Z,997.85
2018-09-30T03:36:56.385Z,997.87
2018-09-30T03:37:56.369Z,997.89
2018-09-30T03:38:56.340Z,997.89
2018-09-30T03:39:56.318Z,997.88
2018-09-30T03:40:56.299Z,997.81
2018-09-30T03:41:56.267Z,997.83
2018-09-30T03:42:56.242Z,997.83
2018-09-30T03:43:56.219Z,997.81
2018-09-30T03:44:56.203Z,997.82
2018-09-30T03:45:56.177Z,997.79
2018-09-30T03:46:56.155Z,997.81
2018-09-30T03:47:56.123Z,997.79
2018-09-30T03:48:56.106Z,997.78
2018-09-30T03:49:56.087Z,997.74
2018-09-30T03:50:56.052Z,997.73
2018-09-30T03:51:56.035Z,997.71
2018-09-30T03:52:56.005Z,997.69
2018-09-30T03:53:55.985Z,997.67
2018-09-30T03:54:55.955Z,997.63
2018-09-30T03:55:55.932Z,997.64
2018-09-30T03:56:55.924Z,997.62
2018-09-30T03:57:55.884Z,997.56
2018-09-30T03:58:55.859Z,997.55
2018-09-30T03:59:55.845Z,997.59
2018-09-30T04:00:55.811Z,997.62
2018-09-30T04:01:55.812Z,997.62
2018-09-30T04:02:55.768Z,997.64
2018-09-30T04:03:55.745Z,997.66
2018-09-30T04:04:55.724Z,997.66
2018-09-30T04:05:55.704Z,997.60
2018-09-30T04:06:55.671Z,997.64
2018-09-30T04:07:55.652Z,997.64
2018-09-30T04:08:55.631Z,997.67
2018-09-30T04:09:55.616Z,997.71
2018-09-30T04:10:55.578Z,997.69
2018-09-30T04:11:55.550Z,997.74
2018-09-30T04:12:55.542Z,997.72
2018-09-30T04:13:55.501Z,997.73
2018-09-30T04:14:55.485Z,997.75
2018-09-30T04:15:55.452Z,997.69
2018-09-30T04:16:55.456Z,997.68
2018-09-30T04:17:55.414Z,997.66
2018-09-30T04:18:55.384Z,997.62
2018-09-30T04:19:55.357Z,997.63
2018-09-30T04:20:55.336Z,997.65
2018-09-30T04:21:55.316Z,997.59
2018-09-30T04:22:55.295Z,997.61
2018-09-30T04:23:55.265Z,997.59
2018-09-30T04:24:55.254Z,997.55
2018-09-30T04:25:55.218Z,997.51
2018-09-30T04:26:55.192Z,997.50
2018-09-30T04:27:55.169Z,997.49
2018-09-30T04:28:55.143Z,997.46
2018-09-30T04:29:55.127Z,997.47
2018-09-30T04:30:55.094Z,997.41
2018-09-30T04:31:55.072Z,997.45
2018-09-30T04:32:55.050Z,997.48
2018-09-30T04:33:55.025Z,997.48
2018-09-30T04:34:55.007Z,997.46
2018-09-30T04:35:54.978Z,997.43
2018-09-30T04:36:54.953Z,997.33
2018-09-30T04:37:54.929Z,997.33
2018-09-30T04:38:54.906Z,997.34
2018-09-30T04:39:54.883Z,997.28
2018-09-30T04:40:54.864Z,997.25
2018-09-30T04:41:54.834Z,997.28
2018-09-30T04:42:54.809Z,997.28
2018-09-30T04:43:54.786Z,997.26
2018-09-30T04:44:54.764Z,997.29
2018-09-30T04:45:54.744Z,997.30
2018-09-30T04:46:54.722Z,997.29
2018-09-30T04:47:54.697Z,997.27
2018-09-30T04:48:54.668Z,997.33
2018-09-30T04:49:54.657Z,997.33
2018-09-30T04:50:54.620Z,997.34
2018-09-30T04:51:54.598Z,997.37
2018-09-30T04:52:54.575Z,997.33
2018-09-30T04:53:54.550Z,997.32
2018-09-30T04:54:54.524Z,997.37
2018-09-30T04:55:54.501Z,997.38
2018-09-30T04:56:54.479Z,997.36
2018-09-30T04:57:54.477Z,997.34
2018-09-30T04:58:54.431Z,997.36
2018-09-30T04:59:54.412Z,997.41
2018-09-30T05:00:54.386Z,997.40
2018-09-30T05:01:54.359Z,997.45
2018-09-30T05:02:54.344Z,997.44
2018-09-30T05:03:54.312Z,997.39
2018-09-30T05:04:54.298Z,997.43
2018-09-30T05:05:54.325Z,997.40
2018-09-30T05:06:54.240Z,997.38
2018-09-30T05:07:54.221Z,997.32
2018-09-30T05:08:54.199Z,997.30
2018-09-30T05:09:54.176Z,997.29
2018-09-30T05:10:54.150Z,997.27
2018-09-30T05:11:54.123Z,997.27
2018-09-30T05:12:54.107Z,997.23
2018-09-30T05:13:54.075Z,997.20
2018-09-30T05:14:54.056Z,997.17
2018-09-30T05:15:54.069Z,997.15
2018-09-30T05:16:54.005Z,997.16
2018-09-30T05:17:53.986Z,997.15
2018-09-30T05:18:53.956Z,997.20
2018-09-30T05:19:53.938Z,997.11
2018-09-30T05:20:53.909Z,997.15
2018-09-30T05:21:53.886Z,997.15
2018-09-30T05:22:53.868Z,997.15
2018-09-30T05:23:53.842Z,997.17
2018-09-30T05:24:53.813Z,997.17
2018-09-30T05:25:53.794Z,997.17
2018-09-30T05:26:53.768Z,997.17
2018-09-30T05:27:53.743Z,997.18
2018-09-30T05:28:53.724Z,997.15
2018-09-30T05:29:53.701Z,997.20
2018-09-30T05:30:53.672Z,997.20
2018-09-30T05:31:53.650Z,997.23
2018-09-30T05:32:53.634Z,997.25
2018-09-30T05:33:53.607Z,997.28
2018-09-30T05:34:53.583Z,997.29
2018-09-30T05:35:53.562Z,997.28
2018-09-30T05:36:53.533Z,997.28
2018-09-30T05:37:53.514Z,997.25
2018-09-30T05:38:53.492Z,997.23
2018-09-30T05:39:53.465Z,997.24
2018-09-30T05:40:53.447Z,997.23
2018-09-30T05:41:53.418Z,997.23
2018-09-30T05:42:53.392Z,997.25
2018-09-30T05:43:53.370Z,997.28
2018-09-30T05:44:53.346Z,997.33
2018-09-30T05:45:53.329Z,997.39
2018-09-30T05:46:53.301Z,997.36
2018-09-30T05:47:53.302Z,997.39
2018-09-30T05:48:53.256Z,997.38
2018-09-30T05:49:53.230Z,997.36
2018-09-30T05:50:53.208Z,997.38
2018-09-30T05:51:53.188Z,997.35
2018-09-30T05:52:53.161Z,997.40
2018-09-30T05:53:53.140Z,997.36
2018-09-30T05:54:53.120Z,997.38
2018-09-30T05:55:53.098Z,997.32
2018-09-30T05:56:53.075Z,997.29
2018-09-30T05:57:53.074Z,997.26
2018-09-30T05:58:53.031Z,997.29
2018-09-30T05:59:53.006Z,997.30
2018-09-30T06:00:52.983Z,997.25
2018-09-30T06:01:52.955Z,997.26
2018-09-30T06:02:52.931Z,997.25
2018-09-30T06:03:52.943Z,997.22
2018-09-30T06:04:52.891Z,997.22
2018-09-30T06:05:52.866Z,997.19
2018-09-30T06:06:52.853Z,997.18
2018-09-30T06:07:52.820Z,997.17
2018-09-30T06:08:52.802Z,997.12
2018-09-30T06:09:52.769Z,997.15
2018-09-30T06:10:52.746Z,997.14
2018-09-30T06:11:52.737Z,997.16
2018-09-30T06:12:52.704Z,997.15
2018-09-30T06:13:52.764Z,997.13
2018-09-30T06:14:52.654Z,997.14
2018-09-30T06:15:52.708Z,997.18
2018-09-30T06:16:52.609Z,997.18
2018-09-30T06:17:52.585Z,997.21
2018-09-30T06:18:52.568Z,997.22
2018-09-30T06:19:52.544Z,997.24
2018-09-30T06:20:52.521Z,997.23
2018-09-30T06:21:52.490Z,997.27
2018-09-30T06:22:52.470Z,997.25
2018-09-30T06:23:52.453Z,997.22
2018-09-30T06:24:52.423Z,997.29
2018-09-30T06:25:52.397Z,997.27
2018-09-30T06:26:52.381Z,997.25
2018-09-30T06:27:52.358Z,997.27
2018-09-30T06:28:52.329Z,997.26
2018-09-30T06:29:52.307Z,997.26
2018-09-30T06:30:52.291Z,997.23
2018-09-30T06:31:52.276Z,997.23
2018-09-30T06:32:52.243Z,997.24
2018-09-30T06:33:52.221Z,997.21
2018-09-30T06:34:52.192Z,997.21
2018-09-30T06:35:52.172Z,997.26
2018-09-30T06:36:52.150Z,997.29
2018-09-30T06:37:52.122Z,997.30
2018-09-30T06:38:52.106Z,997.32
2018-09-30T06:39:52.086Z,997.32
2018-09-30T06:40:52.060Z,997.33
2018-09-30T06:41:52.028Z,997.39
2018-09-30T06:42:52.006Z,997.34
2018-09-30T06:43:51.987Z,997.38
2018-09-30T06:44:52.005Z,997.38
2018-09-30T06:45:51.940Z,997.33
2018-09-30T06:46:51.915Z,997.31
2018-09-30T06:47:51.892Z,997.27
2018-09-30T06:48:51.873Z,997.24
2018-09-30T06:49:51.850Z,997.25
2018-09-30T06:50:51.884Z,997.21
2018-09-30T06:51:51.812Z,997.16
2018-09-30T06:52:51.780Z,997.16
2018-09-30T06:53:51.762Z,997.18
2018-09-30T06:54:51.733Z,997.13
2018-09-30T06:55:51.712Z,997.15
2018-09-30T06:56:52.618Z,997.15
2018-09-30T06:57:51.660Z,997.22
2018-09-30T06:58:51.653Z,997.21
2018-09-30T06:59:51.615Z,997.25
2018-09-30T07:00:51.599Z,997.25
2018-09-30T07:01:51.570Z,997.22
2018-09-30T07:02:51.554Z,997.26
2018-09-30T07:03:51.529Z,997.25
2018-09-30T07:04:51.555Z,997.30
2018-09-30T07:05:51.477Z,997.31
2018-09-30T07:06:51.463Z,997.36
2018-09-30T07:07:51.432Z,997.33
2018-09-30T07:08:51.413Z,997.30
2018-09-30T07:09:51.389Z,997.34
2018-09-30T07:10:51.452Z,997.34
2018-09-30T07:11:51.343Z,997.35
2018-09-30T07:12:51.321Z,997.34
2018-09-30T07:13:51.302Z,997.35
2018-09-30T07:14:51.279Z,997.41
2018-09-30T07:15:51.253Z,997.42
2018-09-30T07:16:51.303Z,997.37
2018-09-30T07:17:51.212Z,997.40
2018-09-30T07:18:51.187Z,997.36
2018-09-30T07:19:51.166Z,997.40
2018-09-30T07:20:51.147Z,997.44
2018-09-30T07:21:51.120Z,997.49
2018-09-30T07:22:51.173Z,997.42
2018-09-30T07:23:51.079Z,997.42
2018-09-30T07:24:51.050Z,997.44
2018-09-30T07:25:51.034Z,997.40
2018-09-30T07:26:51.015Z,997.43
2018-09-30T07:27:50.983Z,997.43
2018-09-30T07:28:50.971Z,997.41
2018-09-30T07:29:50.945Z,997.39
2018-09-30T07:30:50.918Z,997.43
2018-09-30T07:31:50.895Z,997.41
2018-09-30T07:32:50.881Z,997.50
2018-09-30T07:33:50.951Z,997.47
2018-09-30T07:34:50.831Z,997.50
2018-09-30T07:35:50.817Z,997.52
2018-09-30T07:36:50.792Z,997.48
2018-09-30T07:37:50.768Z,997.46
2018-09-30T07:38:50.746Z,997.50
2018-09-30T07:39:50.730Z,997.50
2018-09-30T07:40:50.702Z,997.49
2018-09-30T07:41:50.682Z,997.45
2018-09-30T07:42:50.660Z,997.46
2018-09-30T07:43:50.638Z,997.37
2018-09-30T07:44:50.619Z,997.39
2018-09-30T07:45:50.606Z,997.32
2018-09-30T07:46:50.666Z,997.34
2018-09-30T07:47:50.574Z,997.30
2018-09-30T07:48:50.540Z,997.33
2018-09-30T07:49:50.517Z,997.33
2018-09-30T07:50:50.504Z,997.32
2018-09-30T07:51:50.483Z,997.31
2018-09-30T07:52:50.466Z,997.32
2018-09-30T07:53:50.450Z,997.32
2018-09-30T07:54:50.424Z,997.28
2018-09-30T07:55:50.405Z,997.28
2018-09-30T07:56:50.388Z,997.31
2018-09-30T07:57:50.374Z,997.27
2018-09-30T07:58:50.351Z,997.28
2018-09-30T07:59:50.332Z,997.25
2018-09-30T08:00:50.321Z,997.26
2018-09-30T08:01:50.298Z,997.19
2018-09-30T08:02:50.286Z,997.19
2018-09-30T08:03:50.267Z,997.19
2018-09-30T08:04:50.255Z,997.18
2018-09-30T08:05:50.226Z,997.17
2018-09-30T08:06:50.213Z,997.16
2018-09-30T08:07:50.196Z,997.15
2018-09-30T08:08:50.178Z,997.15
2018-09-30T08:09:50.168Z,997.14
2018-09-30T08:10:50.151Z,997.15
2018-09-30T08:11:50.135Z,997.12
2018-09-30T08:12:50.118Z,997.14
2018-09-30T08:13:50.103Z,997.10
2018-09-30T08:14:50.084Z,997.07
2018-09-30T08:15:50.069Z,997.12
2018-09-30T08:16:50.096Z,997.13
2018-09-30T08:17:50.040Z,997.13
2018-09-30T08:18:50.028Z,997.11
2018-09-30T08:19:50.004Z,997.10
2018-09-30T08:20:49.991Z,997.10
2018-09-30T08:21:49.981Z,997.05
2018-09-30T08:22:49.963Z,997.07
2018-09-30T08:23:49.952Z,997.04
2018-09-30T08:24:49.946Z,997.05
2018-09-30T08:25:49.921Z,997.06
2018-09-30T08:26:49.901Z,997.02
2018-09-30T08:27:49.895Z,997.02
2018-09-30T08:28:49.882Z,997.03
2018-09-30T08:29:49.863Z,996.98
2018-09-30T08:30:49.969Z,996.99
2018-09-30T08:31:49.834Z,996.97
2018-09-30T08:32:49.828Z,996.93
2018-09-30T08:33:49.813Z,996.93
2018-09-30T08:34:49.795Z,996.95
2018-09-30T08:35:49.786Z,996.98
2018-09-30T08:36:49.766Z,996.99
2018-09-30T08:37:49.757Z,996.96
2018-09-30T08:38:49.744Z,996.97
2018-09-30T08:39:49.839Z,996.96
2018-09-30T08:40:49.716Z,996.99
2018-09-30T08:41:49.709Z,996.99
2018-09-30T08:42:49.685Z,996.98
2018-09-30T08:43:49.735Z,997.03
2018-09-30T08:44:49.691Z,997.06
2018-09-30T08:45:49.702Z,997.04
2018-09-30T08:46:49.655Z,997.07
2018-09-30T08:47:49.694Z,997.01
2018-09-30T08:48:49.607Z,997.07
2018-09-30T08:49:49.594Z,997.06
2018-09-30T08:50:49.582Z,997.00
2018-09-30T08:51:49.564Z,996.99
2018-09-30T08:52:49.557Z,997.00
2018-09-30T08:53:49.614Z,997.02
2018-09-30T08:54:49.526Z,997.04
2018-09-30T08:55:49.520Z,996.99
2018-09-30T08:56:49.561Z,997.00
2018-09-30T08:57:49.487Z,997.02
2018-09-30T08:58:49.485Z,996.99
2018-09-30T08:59:49.462Z,996.95
2018-09-30T09:00:49.452Z,996.92
2018-09-30T09:01:49.432Z,996.90
2018-09-30T09:02:49.420Z,996.88
2018-09-30T09:03:49.414Z,996.84
2018-09-30T09:04:49.402Z,996.86
2018-09-30T09:05:49.382Z,996.84
2018-09-30T09:06:49.369Z,996.82
2018-09-30T09:07:49.368Z,996.81
2018-09-30T09:08:49.355Z,996.84
2018-09-30T09:09:49.378Z,996.83
2018-09-30T09:10:49.319Z,996.81
2018-09-30T09:11:49.306Z,996.83
2018-09-30T09:12:49.314Z,996.84
2018-09-30T09:13:49.280Z,996.87
2018-09-30T09:14:49.277Z,996.90
2018-09-30T09:15:49.258Z,996.91
2018-09-30T09:16:49.249Z,996.89
2018-09-30T09:17:49.232Z,996.87
2018-09-30T09:18:49.216Z,996.83
2018-09-30T09:19:49.210Z,996.80
2018-09-30T09:20:49.199Z,996.80
2018-09-30T09:21:49.193Z,996.80
2018-09-30T09:22:49.248Z,996.84
2018-09-30T09:23:49.152Z,996.82
2018-09-30T09:24:49.143Z,996.88
2018-09-30T09:25:49.133Z,996.85
2018-09-30T09:26:49.120Z,996.87
2018-09-30T09:27:49.104Z,996.85
2018-09-30T09:28:49.102Z,996.82
2018-09-30T09:29:49.083Z,996.83
2018-09-30T09:30:49.070Z,996.80
2018-09-30T09:31:49.123Z,996.82
2018-09-30T09:32:49.061Z,996.81
2018-09-30T09:33:49.035Z,996.79
2018-09-30T09:34:49.025Z,996.80
2018-09-30T09:35:49.014Z,996.73
2018-09-30T09:36:49.012Z,996.79
2018-09-30T09:37:48.992Z,996.79
2018-09-30T09:38:48.983Z,996.76
2018-09-30T09:39:48.964Z,996.78
2018-09-30T09:40:48.955Z,996.75
2018-09-30T09:41:48.948Z,996.70
2018-09-30T09:42:48.935Z,996.68
2018-09-30T09:43:48.922Z,996.63
2018-09-30T09:44:48.916Z,996.68
2018-09-30T09:45:48.903Z,996.63
2018-09-30T09:46:48.898Z,996.63
2018-09-30T09:47:48.881Z,996.63
2018-09-30T09:48:48.874Z,996.60
2018-09-30T09:49:48.852Z,996.62
2018-09-30T09:50:48.852Z,996.65
2018-09-30T09:51:48.833Z,996.63
2018-09-30T09:52:48.823Z,996.61
2018-09-30T09:53:48.814Z,996.63
2018-09-30T09:54:48.804Z,996.62
2018-09-30T09:55:48.794Z,996.61
2018-09-30T09:56:48.788Z,996.63
2018-09-30T09:57:48.778Z,996.57
2018-09-30T09:58:48.805Z,996.59
2018-09-30T09:59:48.748Z,996.59
2018-09-30T10:00:48.744Z,996.52
2018-09-30T10:01:48.729Z,996.51
2018-09-30T10:02:48.721Z,996.52
2018-09-30T10:03:48.713Z,996.52
2018-09-30T10:04:48.694Z,996.50
2018-09-30T10:05:48.692Z,996.54
2018-09-30T10:06:48.687Z,996.55
2018-09-30T10:07:48.674Z,996.53
2018-09-30T10:08:48.658Z,996.51
2018-09-30T10:09:48.699Z,996.48
2018-09-30T10:10:48.655Z,996.46
2018-09-30T10:11:48.639Z,996.53
2018-09-30T10:12:48.626Z,996.50
2018-09-30T10:13:48.617Z,996.50
2018-09-30T10:14:48.607Z,996.50
2018-09-30T10:15:48.601Z,996.44
2018-09-30T10:16:48.594Z,996.47
2018-09-30T10:17:48.585Z,996.41
2018-09-30T10:18:48.575Z,996.39
2018-09-30T10:19:48.569Z,996.37
2018-09-30T10:20:48.553Z,996.33
2018-09-30T10:21:48.553Z,996.31
2018-09-30T10:22:48.537Z,996.30
2018-09-30T10:23:48.538Z,996.28
2018-09-30T10:24:48.528Z,996.26
2018-09-30T10:25:48.515Z,996.25
2018-09-30T10:26:48.505Z,996.26
2018-09-30T10:27:48.498Z,996.29
2018-09-30T10:28:48.489Z,996.33
2018-09-30T10:29:48.487Z,996.31
2018-09-30T10:30:48.476Z,996.35
2018-09-30T10:31:48.474Z,996.34
2018-09-30T10:32:48.457Z,996.35
2018-09-30T10:33:48.448Z,996.32
2018-09-30T10:34:48.445Z,996.32
2018-09-30T10:35:48.442Z,996.34
2018-09-30T10:36:48.428Z,996.32
2018-09-30T10:37:48.422Z,996.35
2018-09-30T10:38:48.483Z,996.30
2018-09-30T10:39:48.413Z,996.29
2018-09-30T10:40:48.403Z,996.28
2018-09-30T10:41:48.387Z,996.26
2018-09-30T10:42:48.384Z,996.23
2018-09-30T10:43:48.380Z,996.29
2018-09-30T10:44:48.370Z,996.22
2018-09-30T10:45:48.360Z,996.19
2018-09-30T10:46:48.354Z,996.17
2018-09-30T10:47:48.347Z,996.18
2018-09-30T10:48:48.346Z,996.11
2018-09-30T10:49:48.341Z,996.10
2018-09-30T10:50:48.335Z,996.09
2018-09-30T10:51:48.330Z,996.07
2018-09-30T10:52:48.322Z,996.09
2018-09-30T10:53:48.316Z,996.04
2018-09-30T10:54:48.306Z,996.06
2018-09-30T10:55:48.299Z,995.99
2018-09-30T10:56:48.353Z,995.98
2018-09-30T10:57:48.288Z,995.97
2018-09-30T10:58:48.281Z,995.95
2018-09-30T10:59:48.277Z,995.90
2018-09-30T11:00:48.264Z,995.95
2018-09-30T11:01:48.266Z,995.94
2018-09-30T11:02:48.251Z,995.91
2018-09-30T11:03:48.245Z,995.90
2018-09-30T11:04:48.247Z,995.85
2018-09-30T11:05:48.229Z,995.84
2018-09-30T11:06:48.232Z,995.82
2018-09-30T11:07:48.226Z,995.81
2018-09-30T11:08:48.223Z,995.79
2018-09-30T11:09:48.297Z,995.79
2018-09-30T11:10:48.212Z,995.79
2018-09-30T11:11:48.200Z,995.81
2018-09-30T11:12:48.200Z,995.80
2018-09-30T11:13:48.197Z,995.75
2018-09-30T11:14:48.191Z,995.72
2018-09-30T11:15:48.190Z,995.76
2018-09-30T11:16:48.181Z,995.76
2018-09-30T11:17:48.171Z,995.73
2018-09-30T11:18:48.167Z,995.73
2018-09-30T11:19:48.163Z,995.70
2018-09-30T11:20:48.160Z,995.70
2018-09-30T11:21:48.157Z,995.69
2018-09-30T11:22:48.146Z,995.64
2018-09-30T11:23:48.141Z,995.62
2018-09-30T11:24:48.141Z,995.62
2018-09-30T11:25:48.131Z,995.60
2018-09-30T11:26:48.128Z,995.61
2018-09-30T11:27:48.119Z,995.51
2018-09-30T11:28:48.118Z,995.48
2018-09-30T11:29:48.112Z,995.51
2018-09-30T11:30:48.105Z,995.49
2018-09-30T11:31:48.180Z,995.42
2018-09-30T11:32:48.097Z,995.43
2018-09-30T11:33:48.090Z,995.43
2018-09-30T11:34:48.087Z,995.43
2018-09-30T11:35:48.083Z,995.43
2018-09-30T11:36:48.087Z,995.42
2018-09-30T11:37:48.071Z,995.42
2018-09-30T11:38:48.071Z,995.44
2018-09-30T11:39:48.065Z,995.40
2018-09-30T11:40:48.068Z,995.39
2018-09-30T11:41:48.058Z,995.39
2018-09-30T11:42:48.096Z,995.40
2018-09-30T11:43:48.046Z,995.40
2018-09-30T11:44:48.046Z,995.43
2018-09-30T11:45:48.036Z,995.38
2018-09-30T11:46:48.037Z,995.41
2018-09-30T11:47:48.036Z,995.43
2018-09-30T11:48:48.030Z,995.35
2018-09-30T11:49:48.023Z,995.31
2018-09-30T11:50:48.023Z,995.30
2018-09-30T11:51:48.014Z,995.27
2018-09-30T11:52:48.064Z,995.24
2018-09-30T11:53:48.007Z,995.27
2018-09-30T11:54:48.008Z,995.22
2018-09-30T11:55:47.995Z,995.24
2018-09-30T11:56:47.995Z,995.24
2018-09-30T11:57:47.988Z,995.20
2018-09-30T11:58:47.990Z,995.21
2018-09-30T11:59:47.978Z,995.20
2018-09-30T12:00:47.975Z,995.14
2018-09-30T12:01:47.971Z,995.14
2018-09-30T12:02:47.975Z,995.18
2018-09-30T12:03:47.968Z,995.13
2018-09-30T12:04:47.964Z,995.15
2018-09-30T12:05:47.955Z,995.12
2018-09-30T12:06:47.959Z,995.10
2018-09-30T12:07:47.955Z,995.08
2018-09-30T12:08:47.951Z,995.04
2018-09-30T12:09:47.942Z,995.08
2018-09-30T12:10:47.938Z,995.01
2018-09-30T12:11:47.932Z,995.00
2018-09-30T12:12:47.929Z,994.98
2018-09-30T12:13:47.929Z,994.98
2018-09-30T12:14:47.920Z,994.96
2018-09-30T12:15:47.916Z,994.96
2018-09-30T12:16:47.913Z,994.94
2018-09-30T12:17:47.913Z,994.93
2018-09-30T12:18:48.012Z,994.91
2018-09-30T12:19:47.906Z,994.90
2018-09-30T12:20:47.897Z,994.90
2018-09-30T12:21:47.894Z,994.85
2018-09-30T12:22:47.896Z,994.83
2018-09-30T12:23:47.884Z,994.81
2018-09-30T12:24:47.887Z,994.84
2018-09-30T12:25:47.932Z,994.78
2018-09-30T12:26:47.875Z,994.76
2018-09-30T12:27:47.874Z,994.73